Time;durP1;ratioP1;P1;durP2;ratioP2;P2;SDS_P1;SDS_P2;PMS_P1;PMS_P2;Temp;Humidity;BMP_temperature;BMP_pressure;BME280_temperature;BME280_humidity;BME280_pressure;Samples;Min_cycle;Max_cycle;Signal;HPM_P1;HPM_P2
2023/10/25 00:01:55;;;;;;;4.80;1.35;;;;;;;;;;5013224;28;20289;-64
2023/10/25 00:04:20;;;;;;;3.75;1.85;;;;;;;;;;5013237;28;20029;-64
2023/10/25 00:06:45;;;;;;;4.13;1.30;;;;;;;;;;5013110;28;20536;-64
2023/10/25 00:09:10;;;;;;;3.10;1.52;;;;;;;;;;5013036;28;20030;-64
2023/10/25 00:11:36;;;;;;;3.10;1.40;;;;;;;;;;5012684;28;20017;-64
2023/10/25 00:14:03;;;;;;;4.07;1.70;;;;;;;;;;5013088;28;20484;-64
2023/10/25 00:16:28;;;;;;;3.28;1.48;;;;;;;;;;5012705;28;20419;-64
2023/10/25 00:18:53;;;;;;;3.08;1.38;;;;;;;;;;5013053;28;20038;-64
2023/10/25 00:21:19;;;;;;;7.57;1.73;;;;;;;;;;5012055;28;20116;-64
2023/10/25 00:23:44;;;;;;;2.60;1.20;;;;;;;;;;5012652;28;20022;-64
2023/10/25 00:26:10;;;;;;;9.25;1.35;;;;;;;;;;5012530;28;20277;-64
2023/10/25 00:28:35;;;;;;;4.07;1.70;;;;;;;;;;5012542;28;20100;-64
2023/10/25 00:31:00;;;;;;;4.57;1.60;;;;;;;;;;5003317;28;20065;-64
2023/10/25 00:33:26;;;;;;;3.10;1.37;;;;;;;;;;5013083;28;20280;-63
2023/10/25 00:35:51;;;;;;;2.53;1.20;;;;;;;;;;5011939;28;20284;-63
2023/10/25 00:38:16;;;;;;;2.55;1.33;;;;;;;;;;5012739;28;20288;-63
2023/10/25 00:40:41;;;;;;;2.33;1.10;;;;;;;;;;5012149;28;20044;-63
2023/10/25 00:43:16;;;;;;;3.75;1.48;;;;;;;;;;5012231;28;20323;-63
2023/10/25 00:45:48;;;;;;;4.30;1.40;;;;;;;;;;5011825;28;20111;-63
2023/10/25 00:48:13;;;;;;;2.72;1.27;;;;;;;;;;5011638;28;20026;-64
2023/10/25 00:50:39;;;;;;;2.08;1.10;;;;;;;;;;5011628;28;20045;-63
2023/10/25 00:53:04;;;;;;;4.50;1.75;;;;;;;;;;5012925;28;20026;-63
2023/10/25 00:55:29;;;;;;;4.47;1.67;;;;;;;;;;5011963;28;20412;-63
2023/10/25 00:57:54;;;;;;;3.55;1.45;;;;;;;;;;5012031;28;20026;-63
2023/10/25 01:00:20;;;;;;;2.85;1.30;;;;;;;;;;5011676;28;20033;-63
2023/10/25 01:02:45;;;;;;;5.38;1.52;;;;;;;;;;5012024;28;20021;-63
2023/10/25 01:05:10;;;;;;;4.95;1.67;;;;;;;;;;5011673;28;20022;-63
2023/10/25 01:07:36;;;;;;;4.93;1.40;;;;;;;;;;5011859;28;20544;-63
2023/10/25 01:10:01;;;;;;;2.20;1.00;;;;;;;;;;5012042;28;20025;-63
2023/10/25 01:12:26;;;;;;;4.65;1.70;;;;;;;;;;5011971;28;20285;-63
2023/10/25 01:14:51;;;;;;;2.67;1.23;;;;;;;;;;5011654;28;20164;-63
2023/10/25 01:17:17;;;;;;;4.32;1.67;;;;;;;;;;5012345;28;20041;-63
2023/10/25 01:19:42;;;;;;;4.17;1.27;;;;;;;;;;5011995;28;20036;-63
2023/10/25 01:22:07;;;;;;;3.43;1.47;;;;;;;;;;5011630;28;20300;-63
2023/10/25 01:24:32;;;;;;;2.73;1.20;;;;;;;;;;5012362;28;20767;-63
2023/10/25 01:26:57;;;;;;;3.63;2.00;;;;;;;;;;5011743;28;20280;-63
2023/10/25 01:29:23;;;;;;;3.90;1.13;;;;;;;;;;5011857;28;20272;-63
2023/10/25 01:31:48;;;;;;;2.87;1.30;;;;;;;;;;5009659;28;20273;-63
2023/10/25 01:34:13;;;;;;;3.90;1.67;;;;;;;;;;5011481;28;20276;-63
2023/10/25 01:36:38;;;;;;;2.95;1.30;;;;;;;;;;5011142;28;20284;-63
2023/10/25 01:39:04;;;;;;;2.50;1.27;;;;;;;;;;5011732;28;20041;-63
2023/10/25 01:41:29;;;;;;;2.97;1.50;;;;;;;;;;5011735;28;20289;-63
2023/10/25 01:43:54;;;;;;;3.40;1.50;;;;;;;;;;5011660;28;20045;-64
2023/10/25 01:46:19;;;;;;;3.13;1.48;;;;;;;;;;5011801;28;20117;-64
2023/10/25 01:48:45;;;;;;;3.37;1.47;;;;;;;;;;5011114;28;20048;-64
2023/10/25 01:51:11;;;;;;;4.22;1.92;;;;;;;;;;5011218;28;20268;-64
2023/10/25 01:53:36;;;;;;;3.22;1.60;;;;;;;;;;5011737;28;20037;-64
2023/10/25 01:56:02;;;;;;;3.83;1.55;;;;;;;;;;5011691;28;20075;-64
2023/10/25 01:58:27;;;;;;;3.20;1.67;;;;;;;;;;5011248;28;20021;-64
2023/10/25 02:00:53;;;;;;;5.10;2.05;;;;;;;;;;5010734;28;20045;-63
2023/10/25 02:03:18;;;;;;;5.80;2.03;;;;;;;;;;5011343;28;20049;-64
2023/10/25 02:05:43;;;;;;;3.33;1.67;;;;;;;;;;5011223;28;20034;-64
2023/10/25 02:08:08;;;;;;;3.13;1.73;;;;;;;;;;5011088;28;20110;-64
2023/10/25 02:10:34;;;;;;;2.97;1.33;;;;;;;;;;5009948;28;20060;-64
2023/10/25 02:12:59;;;;;;;4.03;2.20;;;;;;;;;;5010880;28;20029;-64
2023/10/25 02:15:25;;;;;;;2.85;1.55;;;;;;;;;;5015554;28;20112;-64
2023/10/25 02:17:50;;;;;;;2.97;1.45;;;;;;;;;;5014672;28;20034;-64
2023/10/25 02:20:15;;;;;;;2.75;1.60;;;;;;;;;;5013657;28;20133;-64
2023/10/25 02:22:40;;;;;;;3.10;1.70;;;;;;;;;;5014143;28;20052;-64
2023/10/25 02:25:06;;;;;;;2.97;1.40;;;;;;;;;;5014009;28;20284;-64
2023/10/25 02:27:31;;;;;;;7.35;1.85;;;;;;;;;;5014135;28;20391;-64
2023/10/25 02:29:56;;;;;;;4.30;1.80;;;;;;;;;;5010189;28;20382;-64
2023/10/25 02:32:21;;;;;;;3.53;1.75;;;;;;;;;;5005856;28;20552;-64
2023/10/25 02:34:47;;;;;;;3.90;1.60;;;;;;;;;;5013777;28;20076;-64
2023/10/25 02:37:12;;;;;;;2.55;1.20;;;;;;;;;;5015005;28;20268;-65
2023/10/25 02:39:37;;;;;;;2.50;1.40;;;;;;;;;;5014535;28;20472;-64
2023/10/25 02:42:03;;;;;;;4.47;1.20;;;;;;;;;;5014161;28;20654;-64
2023/10/25 02:44:28;;;;;;;4.18;1.30;;;;;;;;;;5014433;28;20032;-64
2023/10/25 02:46:56;;;;;;;3.23;1.60;;;;;;;;;;5013727;28;20026;-64
2023/10/25 02:49:21;;;;;;;3.05;1.08;;;;;;;;;;5013743;28;20356;-64
2023/10/25 02:51:46;;;;;;;3.53;1.50;;;;;;;;;;5013917;28;20437;-64
2023/10/25 02:54:12;;;;;;;2.60;1.50;;;;;;;;;;5014038;28;20886;-64
2023/10/25 02:56:37;;;;;;;3.42;1.63;;;;;;;;;;5014178;28;20806;-64
2023/10/25 02:59:03;;;;;;;5.00;1.20;;;;;;;;;;5013933;28;20026;-64
2023/10/25 03:01:28;;;;;;;3.50;1.30;;;;;;;;;;5013968;28;20292;-64
2023/10/25 03:03:53;;;;;;;3.33;1.35;;;;;;;;;;5013865;28;20026;-64
2023/10/25 03:06:19;;;;;;;2.50;1.17;;;;;;;;;;5014008;28;20057;-63
2023/10/25 03:08:44;;;;;;;2.08;1.10;;;;;;;;;;5013031;28;20033;-63
2023/10/25 03:11:09;;;;;;;4.40;1.50;;;;;;;;;;5012393;28;20040;-64
2023/10/25 03:13:35;;;;;;;3.07;1.20;;;;;;;;;;5013556;28;20025;-63
2023/10/25 03:16:00;;;;;;;2.55;1.15;;;;;;;;;;5013398;28;20268;-63
2023/10/25 03:18:26;;;;;;;2.92;1.13;;;;;;;;;;5013880;28;20066;-64
2023/10/25 03:20:51;;;;;;;3.15;1.55;;;;;;;;;;5013494;28;20437;-63
2023/10/25 03:23:16;;;;;;;6.30;1.17;;;;;;;;;;5014054;28;20054;-63
2023/10/25 03:25:41;;;;;;;2.42;1.02;;;;;;;;;;5013869;28;20376;-63
2023/10/25 03:28:06;;;;;;;2.60;1.10;;;;;;;;;;5012891;28;20033;-63
2023/10/25 03:30:32;;;;;;;2.90;1.33;;;;;;;;;;5011916;28;20413;-63
2023/10/25 03:32:57;;;;;;;4.82;1.80;;;;;;;;;;5012076;28;20080;-63
2023/10/25 03:35:22;;;;;;;6.32;1.50;;;;;;;;;;5003764;28;20026;-63
2023/10/25 03:37:47;;;;;;;2.97;1.30;;;;;;;;;;5011074;28;20026;-64
2023/10/25 03:40:13;;;;;;;3.03;1.10;;;;;;;;;;5010211;28;20292;-63
2023/10/25 03:42:39;;;;;;;4.22;1.60;;;;;;;;;;5013127;28;20273;-63
2023/10/25 03:45:06;;;;;;;1.98;1.13;;;;;;;;;;5013295;28;20396;-63
2023/10/25 03:47:31;;;;;;;4.43;1.42;;;;;;;;;;5012062;28;20117;-64
2023/10/25 03:49:57;;;;;;;3.20;1.15;;;;;;;;;;5013119;28;20592;-63
2023/10/25 03:52:22;;;;;;;2.80;1.03;;;;;;;;;;5013212;28;20036;-64
2023/10/25 03:54:47;;;;;;;4.88;1.60;;;;;;;;;;5013505;28;20383;-63
2023/10/25 03:57:12;;;;;;;2.58;1.08;;;;;;;;;;5012540;28;20041;-64
2023/10/25 03:59:37;;;;;;;2.60;1.00;;;;;;;;;;5009492;28;20033;-63
2023/10/25 04:02:03;;;;;;;3.90;1.10;;;;;;;;;;5013384;28;20280;-63
2023/10/25 04:04:28;;;;;;;3.27;1.50;;;;;;;;;;5012916;28;20287;-64
2023/10/25 04:06:53;;;;;;;4.10;1.13;;;;;;;;;;5012933;28;20407;-64
2023/10/25 04:09:19;;;;;;;3.60;1.25;;;;;;;;;;5012867;28;20059;-64
2023/10/25 04:11:44;;;;;;;3.38;1.30;;;;;;;;;;5012840;28;20470;-63
2023/10/25 04:14:09;;;;;;;2.60;1.30;;;;;;;;;;5012826;28;20072;-63
2023/10/25 04:16:34;;;;;;;3.50;1.47;;;;;;;;;;5012314;28;20268;-63
2023/10/25 04:18:59;;;;;;;2.63;1.37;;;;;;;;;;5012878;28;20319;-63
2023/10/25 04:21:25;;;;;;;3.23;1.50;;;;;;;;;;5012489;28;20301;-64
2023/10/25 04:23:50;;;;;;;2.83;1.40;;;;;;;;;;5013091;28;20280;-64
2023/10/25 04:26:15;;;;;;;3.15;1.45;;;;;;;;;;5012295;28;20323;-64
2023/10/25 04:28:41;;;;;;;3.83;1.20;;;;;;;;;;5008043;28;20033;-64
2023/10/25 04:31:07;;;;;;;3.00;1.38;;;;;;;;;;5011611;28;20022;-64
2023/10/25 04:33:32;;;;;;;4.60;1.80;;;;;;;;;;5012693;28;20506;-64
2023/10/25 04:35:57;;;;;;;6.35;1.80;;;;;;;;;;5012729;28;20032;-64
2023/10/25 04:38:23;;;;;;;4.68;1.65;;;;;;;;;;5012393;28;20057;-64
2023/10/25 04:40:49;;;;;;;2.97;1.35;;;;;;;;;;5010226;28;20053;-63
2023/10/25 04:43:14;;;;;;;3.38;1.58;;;;;;;;;;5012703;28;20107;-63
2023/10/25 04:45:39;;;;;;;3.17;1.60;;;;;;;;;;5011935;28;20022;-63
2023/10/25 04:48:05;;;;;;;2.33;1.53;;;;;;;;;;5012566;28;20347;-65
2023/10/25 04:50:34;;;;;;;3.22;1.50;;;;;;;;;;5012275;28;20273;-64
2023/10/25 04:53:01;;;;;;;2.70;1.42;;;;;;;;;;5012625;28;20030;-65
2023/10/25 04:55:29;;;;;;;3.88;1.70;;;;;;;;;;5011700;28;20032;-64
2023/10/25 04:57:54;;;;;;;4.57;2.05;;;;;;;;;;5012429;28;20499;-64
2023/10/25 05:00:19;;;;;;;6.35;1.40;;;;;;;;;;5012110;28;20058;-65
2023/10/25 05:02:45;;;;;;;8.93;2.05;;;;;;;;;;5011810;28;20491;-65
2023/10/25 05:05:10;;;;;;;4.47;2.05;;;;;;;;;;5012385;28;20052;-64
2023/10/25 05:07:37;;;;;;;2.90;1.20;;;;;;;;;;5012293;28;20025;-65
2023/10/25 05:10:03;;;;;;;3.63;1.33;;;;;;;;;;5012262;28;20475;-64
2023/10/25 05:12:36;;;;;;;8.32;1.95;;;;;;;;;;5009455;28;20014;-65
2023/10/25 05:15:01;;;;;;;2.95;1.33;;;;;;;;;;5012081;28;20088;-64
2023/10/25 05:17:27;;;;;;;2.92;1.70;;;;;;;;;;5012043;28;20021;-65
2023/10/25 05:19:52;;;;;;;3.95;1.65;;;;;;;;;;5011979;28;20109;-64
2023/10/25 05:22:20;;;;;;;3.78;1.58;;;;;;;;;;5010924;28;20022;-64
2023/10/25 05:24:45;;;;;;;3.22;1.50;;;;;;;;;;5011231;28;20067;-65
2023/10/25 05:27:10;;;;;;;2.95;1.40;;;;;;;;;;5003750;28;20068;-65
2023/10/25 05:29:36;;;;;;;3.65;1.83;;;;;;;;;;5000569;28;20378;-65
2023/10/25 05:32:03;;;;;;;2.17;0.82;;;;;;;;;;4993967;28;20041;-65
2023/10/25 05:34:29;;;;;;;2.38;1.15;;;;;;;;;;4997907;28;20111;-65
2023/10/25 05:36:55;;;;;;;2.78;1.15;;;;;;;;;;5005072;28;20484;-64
2023/10/25 05:39:20;;;;;;;2.83;1.17;;;;;;;;;;5011159;28;20460;-64
2023/10/25 05:41:46;;;;;;;7.60;2.63;;;;;;;;;;5011714;28;20030;-64
2023/10/25 05:44:15;;;;;;;3.47;1.77;;;;;;;;;;4999073;28;20062;-64
2023/10/25 05:46:40;;;;;;;4.15;1.98;;;;;;;;;;4964997;28;20990;-65
2023/10/25 05:49:06;;;;;;;2.88;1.30;;;;;;;;;;4966621;28;20034;-64
2023/10/25 05:51:31;;;;;;;3.72;1.40;;;;;;;;;;4968656;28;20136;-64
2023/10/25 05:53:57;;;;;;;2.20;0.90;;;;;;;;;;4973549;28;20025;-64
2023/10/25 05:56:26;;;;;;;4.78;1.70;;;;;;;;;;4972463;28;20039;-64
2023/10/25 05:58:51;;;;;;;3.33;1.40;;;;;;;;;;4972045;28;20101;-64
2023/10/25 06:01:19;;;;;;;4.13;1.48;;;;;;;;;;4972541;28;20034;-64
2023/10/25 06:03:46;;;;;;;5.40;2.00;;;;;;;;;;4970941;28;20414;-64
2023/10/25 06:06:12;;;;;;;4.35;1.42;;;;;;;;;;4971975;28;21047;-64
2023/10/25 06:08:37;;;;;;;2.88;1.45;;;;;;;;;;4971339;28;20057;-64
2023/10/25 06:11:03;;;;;;;2.72;1.20;;;;;;;;;;4968875;28;20042;-64
2023/10/25 06:13:28;;;;;;;2.58;1.40;;;;;;;;;;4969870;28;20018;-64
2023/10/25 06:15:54;;;;;;;2.15;0.95;;;;;;;;;;4972144;28;20026;-64
2023/10/25 06:18:19;;;;;;;2.47;1.13;;;;;;;;;;4969445;28;20029;-65
2023/10/25 06:20:44;;;;;;;2.25;0.95;;;;;;;;;;4967118;28;20035;-63
2023/10/25 06:23:09;;;;;;;5.10;1.30;;;;;;;;;;4968661;28;20040;-64
2023/10/25 06:25:35;;;;;;;3.03;1.20;;;;;;;;;;4971118;28;20288;-64
2023/10/25 06:28:00;;;;;;;3.28;1.40;;;;;;;;;;4962889;28;20272;-63
2023/10/25 06:30:28;;;;;;;2.78;1.23;;;;;;;;;;4967477;28;20948;-63
2023/10/25 06:32:56;;;;;;;2.95;1.42;;;;;;;;;;4964901;28;20018;-63
2023/10/25 06:35:21;;;;;;;4.18;1.33;;;;;;;;;;4969991;28;20049;-63
2023/10/25 06:37:47;;;;;;;2.75;1.23;;;;;;;;;;4967314;28;20089;-63
2023/10/25 06:40:12;;;;;;;2.97;1.02;;;;;;;;;;4963096;28;20036;-63
2023/10/25 06:42:38;;;;;;;2.10;1.00;;;;;;;;;;4972249;28;20026;-63
2023/10/25 06:45:03;;;;;;;2.08;0.90;;;;;;;;;;4970171;28;20875;-64
2023/10/25 06:47:29;;;;;;;3.67;1.38;;;;;;;;;;4967245;28;20026;-63
2023/10/25 06:49:54;;;;;;;4.03;1.40;;;;;;;;;;4965694;28;20030;-63
2023/10/25 06:52:20;;;;;;;3.25;1.17;;;;;;;;;;4971386;28;20958;-63
2023/10/25 06:54:45;;;;;;;1.75;0.95;;;;;;;;;;4970825;28;20123;-65
2023/10/25 06:57:11;;;;;;;5.80;1.50;;;;;;;;;;4967550;28;20964;-63
2023/10/25 06:59:37;;;;;;;2.67;0.98;;;;;;;;;;4965105;28;20088;-63
2023/10/25 07:02:23;;;;;;;2.00;1.02;;;;;;;;;;4970754;28;20040;-63
2023/10/25 07:04:51;;;;;;;1.73;0.90;;;;;;;;;;4961339;28;20878;-64
2023/10/25 07:07:18;;;;;;;1.63;0.75;;;;;;;;;;4974283;28;20070;-63
2023/10/25 07:09:43;;;;;;;2.97;1.42;;;;;;;;;;4960135;28;20056;-63
2023/10/25 07:12:08;;;;;;;3.30;1.10;;;;;;;;;;4971071;28;20025;-64
2023/10/25 07:14:33;;;;;;;1.87;0.97;;;;;;;;;;4969949;28;20033;-63
2023/10/25 07:16:59;;;;;;;2.63;1.10;;;;;;;;;;4971428;28;20285;-63
2023/10/25 07:19:24;;;;;;;3.00;1.43;;;;;;;;;;4972413;28;20029;-63
2023/10/25 07:21:49;;;;;;;4.13;1.50;;;;;;;;;;4970817;28;21429;-63
2023/10/25 07:24:14;;;;;;;2.08;1.00;;;;;;;;;;4969380;28;21180;-65
2023/10/25 07:26:40;;;;;;;5.65;1.30;;;;;;;;;;4970187;28;20093;-63
2023/10/25 07:29:05;;;;;;;3.55;1.40;;;;;;;;;;4969539;28;20017;-63
2023/10/25 07:31:30;;;;;;;2.88;1.23;;;;;;;;;;4969077;28;20948;-63
2023/10/25 07:33:55;;;;;;;3.37;1.10;;;;;;;;;;4966546;28;20027;-63
2023/10/25 07:36:20;;;;;;;3.23;1.13;;;;;;;;;;4968531;28;20284;-62
2023/10/25 07:38:46;;;;;;;2.95;1.17;;;;;;;;;;4969890;28;20376;-62
2023/10/25 07:41:11;;;;;;;2.80;1.20;;;;;;;;;;4970440;28;20555;-63
2023/10/25 07:43:36;;;;;;;3.05;1.25;;;;;;;;;;4961742;28;20048;-62
2023/10/25 07:46:02;;;;;;;2.42;1.27;;;;;;;;;;4971605;28;20037;-63
2023/10/25 07:48:27;;;;;;;2.95;1.20;;;;;;;;;;4970424;28;20080;-63
2023/10/25 07:50:52;;;;;;;2.90;1.63;;;;;;;;;;4971111;28;20824;-63
2023/10/25 07:53:17;;;;;;;3.22;1.73;;;;;;;;;;4960750;28;20073;-64
2023/10/25 07:55:44;;;;;;;5.53;1.83;;;;;;;;;;4969823;28;20133;-63
2023/10/25 07:58:10;;;;;;;4.63;1.83;;;;;;;;;;4972621;28;20026;-63
2023/10/25 08:00:36;;;;;;;4.43;1.65;;;;;;;;;;4970262;28;20045;-63
2023/10/25 08:03:01;;;;;;;3.03;1.52;;;;;;;;;;4970828;28;20080;-63
2023/10/25 08:05:26;;;;;;;3.72;1.80;;;;;;;;;;4971785;28;20101;-63
2023/10/25 08:07:51;;;;;;;2.95;1.85;;;;;;;;;;4972271;28;20133;-63
2023/10/25 08:10:17;;;;;;;3.55;1.70;;;;;;;;;;4963452;28;20029;-63
2023/10/25 08:12:42;;;;;;;2.85;1.52;;;;;;;;;;4969021;28;20030;-63
2023/10/25 08:15:08;;;;;;;3.50;1.90;;;;;;;;;;4969575;28;20018;-63
2023/10/25 08:17:33;;;;;;;4.93;1.73;;;;;;;;;;4969323;28;20026;-63
2023/10/25 08:19:59;;;;;;;4.80;2.10;;;;;;;;;;4965218;28;20056;-63
2023/10/25 08:22:24;;;;;;;4.03;1.45;;;;;;;;;;4971391;28;20061;-63
2023/10/25 08:24:49;;;;;;;4.10;1.60;;;;;;;;;;4969730;28;20036;-63
2023/10/25 08:27:14;;;;;;;4.00;1.75;;;;;;;;;;4973120;28;20884;-63
2023/10/25 08:29:40;;;;;;;5.15;1.92;;;;;;;;;;4970613;28;20168;-63
2023/10/25 08:32:05;;;;;;;7.00;1.70;;;;;;;;;;4972925;28;20021;-63
2023/10/25 08:34:30;;;;;;;3.00;1.90;;;;;;;;;;4972600;28;20827;-63
2023/10/25 08:36:56;;;;;;;3.78;1.88;;;;;;;;;;4975153;28;20063;-63
2023/10/25 08:39:21;;;;;;;3.85;2.33;;;;;;;;;;4978672;28;20169;-63
2023/10/25 08:41:47;;;;;;;4.10;2.00;;;;;;;;;;4970978;28;20115;-63
2023/10/25 08:44:12;;;;;;;4.75;2.15;;;;;;;;;;4978660;28;20087;-63
2023/10/25 08:46:40;;;;;;;4.43;2.50;;;;;;;;;;4973677;28;20036;-63
2023/10/25 08:49:05;;;;;;;4.50;2.42;;;;;;;;;;4970680;28;20041;-63
2023/10/25 08:51:30;;;;;;;3.97;2.30;;;;;;;;;;4976404;28;20048;-63
2023/10/25 08:53:59;;;;;;;4.95;2.17;;;;;;;;;;4975832;28;20049;-64
2023/10/25 08:56:25;;;;;;;3.83;2.17;;;;;;;;;;4977186;28;20490;-64
2023/10/25 08:58:51;;;;;;;4.10;1.98;;;;;;;;;;4976792;28;20220;-64
2023/10/25 09:01:16;;;;;;;5.57;2.30;;;;;;;;;;4984311;28;20815;-63
2023/10/25 09:03:42;;;;;;;5.68;2.25;;;;;;;;;;4987068;28;20100;-64
2023/10/25 09:06:08;;;;;;;4.28;1.95;;;;;;;;;;4973871;28;20281;-64
2023/10/25 09:08:34;;;;;;;5.85;2.35;;;;;;;;;;4970209;28;20542;-63
2023/10/25 09:11:03;;;;;;;3.80;2.10;;;;;;;;;;4969305;28;20022;-64
2023/10/25 09:13:29;;;;;;;3.47;2.17;;;;;;;;;;4968178;28;20415;-63
2023/10/25 09:16:04;;;;;;;4.45;2.13;;;;;;;;;;4966483;28;20090;-64
2023/10/25 09:18:31;;;;;;;4.32;2.53;;;;;;;;;;4968952;28;20029;-64
2023/10/25 09:20:56;;;;;;;5.03;2.13;;;;;;;;;;4962236;28;20088;-64
2023/10/25 09:23:22;;;;;;;3.85;2.03;;;;;;;;;;4969145;28;20037;-64
2023/10/25 09:25:49;;;;;;;3.78;2.25;;;;;;;;;;4967597;28;20092;-63
2023/10/25 09:28:15;;;;;;;3.28;1.73;;;;;;;;;;4966272;28;20919;-64
2023/10/25 09:30:41;;;;;;;5.35;2.05;;;;;;;;;;4966775;28;20018;-64
2023/10/25 09:33:06;;;;;;;4.75;2.15;;;;;;;;;;4969431;28;20018;-63
2023/10/25 09:35:31;;;;;;;6.50;2.40;;;;;;;;;;4969183;28;20065;-64
2023/10/25 09:37:56;;;;;;;8.00;2.93;;;;;;;;;;4963764;28;20339;-64
2023/10/25 09:40:22;;;;;;;4.78;2.83;;;;;;;;;;4963068;28;20277;-64
2023/10/25 09:42:49;;;;;;;3.55;2.25;;;;;;;;;;4969191;28;20026;-64
2023/10/25 09:45:20;;;;;;;6.80;2.80;;;;;;;;;;4968411;28;20029;-64
2023/10/25 09:47:48;;;;;;;4.95;2.63;;;;;;;;;;4968818;28;20140;-65
2023/10/25 09:50:16;;;;;;;4.97;2.67;;;;;;;;;;4966685;28;20133;-64
2023/10/25 09:52:42;;;;;;;4.55;2.70;;;;;;;;;;4968183;28;20022;-65
2023/10/25 09:55:25;;;;;;;4.32;2.95;;;;;;;;;;4960000;28;20861;-64
2023/10/25 09:57:53;;;;;;;5.65;2.33;;;;;;;;;;4967778;28;20037;-64
2023/10/25 10:00:18;;;;;;;4.50;2.35;;;;;;;;;;4969409;28;20029;-64
2023/10/25 10:02:47;;;;;;;6.88;2.35;;;;;;;;;;4977658;28;20026;-63
2023/10/25 10:05:21;;;;;;;4.65;3.08;;;;;;;;;;4964509;28;20031;-63
2023/10/25 10:07:53;;;;;;;5.38;2.72;;;;;;;;;;4960481;28;20025;-63
2023/10/25 10:10:24;;;;;;;4.72;2.67;;;;;;;;;;4978628;28;20025;-64
2023/10/25 10:12:49;;;;;;;7.05;3.05;;;;;;;;;;4967354;28;20152;-63
2023/10/25 10:15:16;;;;;;;8.15;3.30;;;;;;;;;;4970241;28;20924;-63
2023/10/25 10:17:43;;;;;;;6.53;3.10;;;;;;;;;;4968705;28;20032;-63
2023/10/25 10:20:20;;;;;;;6.68;3.20;;;;;;;;;;4966261;28;20615;-63
2023/10/25 10:23:03;;;;;;;6.15;2.75;;;;;;;;;;4969905;28;20061;-64
2023/10/25 10:25:47;;;;;;;3.35;2.08;;;;;;;;;;4964529;28;20025;-64
2023/10/25 10:28:14;;;;;;;6.13;1.95;;;;;;;;;;4962804;28;20073;-63
2023/10/25 10:30:40;;;;;;;4.47;2.35;;;;;;;;;;4969166;28;20022;-63
2023/10/25 10:33:10;;;;;;;5.65;3.00;;;;;;;;;;4967335;28;20030;-63
2023/10/25 10:35:35;;;;;;;4.10;2.50;;;;;;;;;;4965881;28;20243;-63
2023/10/25 10:38:00;;;;;;;4.18;2.75;;;;;;;;;;4971014;28;20528;-63
2023/10/25 10:40:25;;;;;;;3.67;2.17;;;;;;;;;;4966483;28;20026;-63
2023/10/25 10:42:51;;;;;;;4.90;2.53;;;;;;;;;;4971315;28;20092;-63
2023/10/25 10:45:18;;;;;;;5.00;2.97;;;;;;;;;;4973566;28;20839;-63
2023/10/25 10:47:46;;;;;;;5.97;3.17;;;;;;;;;;4978614;28;20096;-62
2023/10/25 10:50:15;;;;;;;5.72;2.50;;;;;;;;;;4961216;28;20589;-63
2023/10/25 10:52:41;;;;;;;4.70;2.80;;;;;;;;;;4972300;28;20022;-71
2023/10/25 10:55:07;;;;;;;3.67;2.58;;;;;;;;;;4973126;28;20089;-69
2023/10/25 10:57:33;;;;;;;5.93;2.60;;;;;;;;;;4968409;28;20026;-69
2023/10/25 10:59:59;;;;;;;6.63;3.22;;;;;;;;;;4970826;28;20022;-70
2023/10/25 11:02:25;;;;;;;6.53;3.05;;;;;;;;;;4972261;28;20827;-69
2023/10/25 11:04:50;;;;;;;6.35;3.33;;;;;;;;;;4973043;28;20137;-69
2023/10/25 11:07:17;;;;;;;4.60;3.00;;;;;;;;;;4966028;28;20881;-68
2023/10/25 11:09:42;;;;;;;6.47;3.78;;;;;;;;;;4969563;28;20030;-69
2023/10/25 11:12:14;;;;;;;5.65;2.80;;;;;;;;;;4961461;28;20077;-70
2023/10/25 11:14:43;;;;;;;5.63;3.42;;;;;;;;;;4971690;28;20022;-69
2023/10/25 11:17:08;;;;;;;4.63;3.13;;;;;;;;;;4962962;28;20030;-68
2023/10/25 11:19:34;;;;;;;5.88;3.30;;;;;;;;;;4968871;28;20056;-71
2023/10/25 11:21:59;;;;;;;7.25;4.10;;;;;;;;;;4969298;28;20148;-76
2023/10/25 11:24:25;;;;;;;4.78;3.35;;;;;;;;;;4965234;28;20022;-74
2023/10/25 11:26:50;;;;;;;6.50;3.58;;;;;;;;;;4971517;28;20029;-70
2023/10/25 11:29:15;;;;;;;5.90;3.67;;;;;;;;;;4970539;28;20022;-64
2023/10/25 11:31:42;;;;;;;5.35;4.00;;;;;;;;;;4970365;28;20816;-72
2023/10/25 11:34:07;;;;;;;5.53;3.90;;;;;;;;;;4970969;28;20133;-77
2023/10/25 11:36:33;;;;;;;7.38;4.20;;;;;;;;;;4972138;28;20908;-77
2023/10/25 11:39:06;;;;;;;6.35;4.53;;;;;;;;;;4980173;28;20033;-69
2023/10/25 11:41:31;;;;;;;5.75;3.88;;;;;;;;;;4968003;28;20021;-68
2023/10/25 11:43:57;;;;;;;6.25;3.53;;;;;;;;;;4970790;28;20053;-65
2023/10/25 11:46:24;;;;;;;7.80;3.95;;;;;;;;;;4961740;28;20046;-64
2023/10/25 11:48:49;;;;;;;5.18;3.55;;;;;;;;;;4969759;28;20136;-62
2023/10/25 11:51:17;;;;;;;5.90;3.42;;;;;;;;;;4970997;28;20181;-74
2023/10/25 11:53:42;;;;;;;5.20;3.00;;;;;;;;;;4968816;28;20857;-72
2023/10/25 11:56:07;;;;;;;3.80;2.22;;;;;;;;;;4970075;28;20030;-72
2023/10/25 11:58:33;;;;;;;5.38;2.67;;;;;;;;;;4972774;28;20125;-66
2023/10/25 12:01:04;;;;;;;3.43;2.00;;;;;;;;;;4968760;28;20811;-67
2023/10/25 12:03:29;;;;;;;4.35;2.22;;;;;;;;;;4967921;28;20288;-67
2023/10/25 12:05:54;;;;;;;4.75;2.10;;;;;;;;;;4970349;28;20864;-66
2023/10/25 12:08:19;;;;;;;4.17;2.33;;;;;;;;;;4961915;28;20049;-64
2023/10/25 12:10:45;;;;;;;4.40;1.80;;;;;;;;;;4969065;28;20281;-64
2023/10/25 12:13:10;;;;;;;4.15;1.50;;;;;;;;;;4973305;28;20830;-64
2023/10/25 12:15:35;;;;;;;3.60;1.77;;;;;;;;;;4970066;28;20025;-65
2023/10/25 12:18:00;;;;;;;5.63;2.67;;;;;;;;;;4969222;28;20058;-65
2023/10/25 12:20:26;;;;;;;3.60;1.50;;;;;;;;;;4969244;28;20018;-65
2023/10/25 12:22:51;;;;;;;2.25;1.17;;;;;;;;;;4964821;28;20276;-65
2023/10/25 12:25:16;;;;;;;2.80;1.10;;;;;;;;;;4960088;28;20026;-65
2023/10/25 12:27:43;;;;;;;1.88;0.93;;;;;;;;;;4971001;28;20029;-65
2023/10/25 12:30:09;;;;;;;1.73;0.82;;;;;;;;;;4969231;28;20036;-66
2023/10/25 12:32:34;;;;;;;1.50;0.57;;;;;;;;;;4969930;28;20124;-65
2023/10/25 12:34:59;;;;;;;1.23;0.57;;;;;;;;;;4971225;28;20030;-65
2023/10/25 12:37:25;;;;;;;1.70;0.70;;;;;;;;;;4961980;28;20297;-65
2023/10/25 12:39:51;;;;;;;1.67;0.60;;;;;;;;;;4968987;28;20280;-65
2023/10/25 12:42:16;;;;;;;1.87;0.60;;;;;;;;;;4968321;28;20026;-65
2023/10/25 12:44:41;;;;;;;3.70;0.80;;;;;;;;;;4966711;28;20316;-65
2023/10/25 12:47:06;;;;;;;1.42;0.60;;;;;;;;;;4968411;28;20279;-65
2023/10/25 12:49:32;;;;;;;1.45;0.55;;;;;;;;;;4971207;28;20871;-67
2023/10/25 12:51:57;;;;;;;1.27;0.50;;;;;;;;;;4965375;28;20100;-65
2023/10/25 12:54:22;;;;;;;1.40;0.47;;;;;;;;;;4960386;28;20029;-65
2023/10/25 12:56:48;;;;;;;1.90;0.63;;;;;;;;;;4971129;28;20284;-65
2023/10/25 12:59:13;;;;;;;0.85;0.30;;;;;;;;;;4969397;28;20820;-65
2023/10/25 13:01:39;;;;;;;0.88;0.35;;;;;;;;;;4960493;28;20081;-65
2023/10/25 13:04:05;;;;;;;1.10;0.43;;;;;;;;;;4969374;28;20033;-65
2023/10/25 13:06:32;;;;;;;0.70;0.30;;;;;;;;;;4975636;28;20922;-65
2023/10/25 13:08:58;;;;;;;1.25;0.43;;;;;;;;;;4963277;28;20910;-65
2023/10/25 13:11:23;;;;;;;1.02;0.50;;;;;;;;;;4968536;28;20125;-65
2023/10/25 13:13:48;;;;;;;2.03;0.70;;;;;;;;;;4969204;28;20037;-64
2023/10/25 13:16:14;;;;;;;1.05;0.43;;;;;;;;;;4977441;28;20261;-66
2023/10/25 13:18:39;;;;;;;1.60;0.60;;;;;;;;;;4964172;28;20029;-65
2023/10/25 13:21:04;;;;;;;1.60;0.53;;;;;;;;;;4967406;28;21187;-65
2023/10/25 13:23:29;;;;;;;1.17;0.60;;;;;;;;;;4967418;28;21135;-66
2023/10/25 13:25:55;;;;;;;2.20;0.50;;;;;;;;;;4971847;28;21141;-66
2023/10/25 13:28:20;;;;;;;2.10;0.98;;;;;;;;;;4970343;28;20391;-66
2023/10/25 13:30:45;;;;;;;1.52;0.70;;;;;;;;;;4968445;28;20103;-66
2023/10/25 13:33:12;;;;;;;2.75;0.70;;;;;;;;;;4957734;28;20061;-66
2023/10/25 13:35:38;;;;;;;3.47;0.90;;;;;;;;;;4967441;28;20811;-66
2023/10/25 13:38:03;;;;;;;2.13;0.80;;;;;;;;;;4970368;28;20018;-65
2023/10/25 13:40:28;;;;;;;1.40;0.60;;;;;;;;;;4957632;28;21208;-66
2023/10/25 13:42:53;;;;;;;1.92;0.82;;;;;;;;;;4958834;28;20021;-65
2023/10/25 13:45:19;;;;;;;1.80;0.80;;;;;;;;;;4969561;28;20937;-66
2023/10/25 13:47:44;;;;;;;2.40;0.88;;;;;;;;;;4967222;28;20315;-66
2023/10/25 13:50:09;;;;;;;1.95;0.93;;;;;;;;;;4968060;28;20470;-66
2023/10/25 13:52:35;;;;;;;1.35;0.65;;;;;;;;;;4966532;28;20022;-65
2023/10/25 13:55:00;;;;;;;1.92;0.90;;;;;;;;;;4965099;28;20034;-64
2023/10/25 13:57:25;;;;;;;1.03;0.50;;;;;;;;;;4962973;28;20042;-64
2023/10/25 13:59:50;;;;;;;1.33;0.70;;;;;;;;;;4968940;28;20309;-64
2023/10/25 14:02:16;;;;;;;2.20;0.80;;;;;;;;;;4959597;28;20296;-64
2023/10/25 14:04:41;;;;;;;2.57;0.80;;;;;;;;;;4967010;28;20280;-64
2023/10/25 14:07:06;;;;;;;1.37;0.60;;;;;;;;;;4960757;28;20277;-65
2023/10/25 14:09:31;;;;;;;1.27;0.50;;;;;;;;;;4956024;28;20309;-65
2023/10/25 14:11:57;;;;;;;1.80;0.73;;;;;;;;;;4966791;28;20366;-64
2023/10/25 14:14:22;;;;;;;1.88;0.75;;;;;;;;;;4962569;28;20273;-64
2023/10/25 14:16:47;;;;;;;1.58;0.68;;;;;;;;;;4972763;28;20022;-65
2023/10/25 14:19:13;;;;;;;1.67;0.63;;;;;;;;;;4973015;28;20033;-65
2023/10/25 14:21:38;;;;;;;1.73;0.80;;;;;;;;;;4971625;28;20754;-66
2023/10/25 14:24:05;;;;;;;2.63;0.73;;;;;;;;;;4970409;28;20073;-65
2023/10/25 14:26:30;;;;;;;3.15;0.70;;;;;;;;;;4970381;28;20906;-65
2023/10/25 14:28:55;;;;;;;2.13;0.95;;;;;;;;;;4971978;28;20160;-66
2023/10/25 14:31:21;;;;;;;1.70;0.80;;;;;;;;;;4971414;28;20799;-66
2023/10/25 14:33:46;;;;;;;1.60;0.70;;;;;;;;;;4971860;28;20064;-68
2023/10/25 14:36:12;;;;;;;1.45;0.70;;;;;;;;;;4972161;28;20165;-64